Time;durP1;ratioP1;P1;durP2;ratioP2;P2;SDS_P1;SDS_P2;PMS_P1;PMS_P2;Temp;Humidity;BMP_temperature;BMP_pressure;BME280_temperature;BME280_humidity;BME280_pressure;Samples;Min_cycle;Max_cycle;Signal;HPM_P1;HPM_P2
2022/11/09 00:00:06;;;;;;;11.77;9.20;;;9.70;1.00;;;;;;4978542;28;20169;-69
2022/11/09 00:02:31;;;;;;;13.80;9.20;;;9.60;1.00;;;;;;4961217;28;20186;-68
2022/11/09 00:04:57;;;;;;;19.93;10.97;;;9.60;1.00;;;;;;4960132;29;20899;-69
2022/11/09 00:07:23;;;;;;;13.03;8.60;;;9.60;1.00;;;;;;4963097;29;20197;-69
2022/11/09 00:09:48;;;;;;;16.50;9.50;;;9.60;1.00;;;;;;4962559;29;20197;-66
2022/11/09 00:12:14;;;;;;;16.73;10.13;;;9.60;1.00;;;;;;4960529;29;20201;-67
2022/11/09 00:14:40;;;;;;;16.30;10.47;;;9.70;1.00;;;;;;4957345;29;20273;-66
2022/11/09 00:17:05;;;;;;;11.63;8.90;;;9.60;1.00;;;;;;4955167;29;20205;-65
2022/11/09 00:19:31;;;;;;;13.60;10.40;;;9.60;1.00;;;;;;4955236;29;20178;-67
2022/11/09 00:21:56;;;;;;;13.63;8.90;;;9.70;1.00;;;;;;4953881;29;20179;-67
2022/11/09 00:24:22;;;;;;;18.80;9.90;;;9.60;1.00;;;;;;4954687;29;20278;-67
2022/11/09 00:26:48;;;;;;;12.47;8.83;;;9.60;1.00;;;;;;4955172;29;20234;-65
2022/11/09 00:29:13;;;;;;;21.50;9.03;;;9.60;1.00;;;;;;4954862;28;20186;-67
2022/11/09 00:31:39;;;;;;;16.93;9.67;;;9.60;1.00;;;;;;4954186;29;20174;-66
2022/11/09 00:34:05;;;;;;;11.20;8.20;;;9.60;1.00;;;;;;4954854;29;20201;-67
2022/11/09 00:36:30;;;;;;;18.90;10.13;;;9.60;1.00;;;;;;4954278;29;20209;-65
2022/11/09 00:38:58;;;;;;;10.87;9.67;;;9.60;1.00;;;;;;4954877;29;20175;-65
2022/11/09 00:41:25;;;;;;;15.97;8.97;;;9.60;1.00;;;;;;4954054;28;20261;-65
2022/11/09 00:43:51;;;;;;;20.27;10.70;;;9.60;1.00;;;;;;4954748;28;20452;-66
2022/11/09 00:46:17;;;;;;;15.60;10.40;;;9.60;1.00;;;;;;4954637;28;20424;-66
2022/11/09 00:48:44;;;;;;;11.80;9.80;;;9.60;1.00;;;;;;4954801;28;21005;-64
2022/11/09 00:51:10;;;;;;;10.83;9.03;;;9.50;9.70;;;;;;4953390;28;20418;-66
2022/11/09 00:53:36;;;;;;;14.73;8.90;;;9.50;25.80;;;;;;4954391;29;20803;-67
2022/11/09 00:56:04;;;;;;;15.90;9.70;;;9.50;37.40;;;;;;4954550;28;20549;-63
2022/11/09 00:58:33;;;;;;;10.07;8.83;;;9.50;1.00;;;;;;4954824;28;21030;-63
2022/11/09 01:01:04;;;;;;;10.50;8.73;;;9.50;1.00;;;;;;4960209;28;20772;-65
2022/11/09 01:03:30;;;;;;;9.53;8.40;;;9.60;1.00;;;;;;4973654;28;20516;-67
2022/11/09 01:05:58;;;;;;;15.50;7.90;;;9.60;1.00;;;;;;4971306;28;20801;-66
2022/11/09 01:08:24;;;;;;;13.67;9.47;;;9.60;1.00;;;;;;4973806;28;20200;-66
2022/11/09 01:10:50;;;;;;;9.70;8.70;;;9.50;1.00;;;;;;4972100;28;20406;-67
2022/11/09 01:13:17;;;;;;;14.67;8.90;;;9.50;1.00;;;;;;4973213;28;20499;-65
2022/11/09 01:15:48;;;;;;;11.03;9.10;;;9.50;28.50;;;;;;4978575;28;20170;-67
2022/11/09 01:18:16;;;;;;;14.40;8.80;;;9.50;99.90;;;;;;4976388;28;20588;-66
2022/11/09 01:20:44;;;;;;;19.07;9.60;;;9.50;94.10;;;;;;4972334;28;20410;-67
2022/11/09 01:23:11;;;;;;;16.73;8.50;;;9.50;99.90;;;;;;4973327;28;20464;-63
2022/11/09 01:25:37;;;;;;;11.87;8.23;;;9.50;99.90;;;;;;4973584;28;20479;-69
2022/11/09 01:28:05;;;;;;;12.20;8.20;;;9.50;99.90;;;;;;4973242;28;20417;-68
2022/11/09 01:30:36;;;;;;;9.47;8.47;;;9.50;99.90;;;;;;4972458;28;20181;-68
2022/11/09 01:33:03;;;;;;;12.60;9.03;;;9.50;99.90;;;;;;4973660;28;20429;-68
2022/11/09 01:35:31;;;;;;;18.03;9.27;;;9.40;99.90;;;;;;4971660;28;20495;-66
2022/11/09 01:37:57;;;;;;;14.53;9.10;;;9.50;99.90;;;;;;4959735;28;20791;-68
2022/11/09 01:40:22;;;;;;;21.20;8.80;;;9.50;99.90;;;;;;4976963;28;20413;-66
2022/11/09 01:42:48;;;;;;;17.63;8.47;;;9.50;99.90;;;;;;4980276;28;20166;-68
2022/11/09 01:45:17;;;;;;;20.87;10.13;;;9.50;99.90;;;;;;4980230;28;20285;-67
2022/11/09 01:47:46;;;;;;;12.03;9.07;;;9.60;23.60;;;;;;4984881;28;20205;-68
2022/11/09 01:50:14;;;;;;;10.30;7.57;;;9.60;1.00;;;;;;4976433;28;20453;-67
2022/11/09 01:52:44;;;;;;;15.13;8.67;;;9.60;1.00;;;;;;4981476;28;20417;-68
2022/11/09 01:55:15;;;;;;;13.17;8.80;;;9.50;21.40;;;;;;4969697;28;21025;-68
2022/11/09 01:58:07;;;;;;;11.80;8.80;;;9.50;93.70;;;;;;4955282;28;20980;-67
2022/11/09 02:00:36;;;;;;;17.03;8.70;;;9.50;72.20;;;;;;4950309;28;20441;-66
2022/11/09 02:03:08;;;;;;;11.87;8.53;;;9.50;84.30;;;;;;4972507;28;20512;-65
2022/11/09 02:05:35;;;;;;;15.87;9.63;;;9.50;43.00;;;;;;4970436;28;20460;-68
2022/11/09 02:08:03;;;;;;;21.10;9.30;;;9.40;99.90;;;;;;4957151;28;20410;-66
2022/11/09 02:10:32;;;;;;;10.10;8.40;;;9.40;99.90;;;;;;4952310;28;20425;-66
2022/11/09 02:12:59;;;;;;;9.20;7.83;;;9.40;99.90;;;;;;4953104;28;20450;-68
2022/11/09 02:15:25;;;;;;;9.50;8.50;;;9.20;99.90;;;;;;4952798;28;20418;-66
2022/11/09 02:17:53;;;;;;;12.77;9.20;;;9.10;99.90;;;;;;4966219;28;20461;-65
2022/11/09 02:20:20;;;;;;;13.50;9.00;;;9.00;1.00;;;;;;4966886;28;20926;-68
2022/11/09 02:22:46;;;;;;;25.10;9.23;;;9.00;1.00;;;;;;4979269;28;20423;-67
2022/11/09 02:25:14;;;;;;;19.03;9.17;;;9.10;99.90;;;;;;4981023;28;20496;-67
2022/11/09 02:27:42;;;;;;;10.13;8.27;;;9.20;99.90;;;;;;4979892;28;20177;-69
2022/11/09 02:30:08;;;;;;;15.93;8.70;;;9.20;99.90;;;;;;4967151;28;20792;-70
2022/11/09 02:32:34;;;;;;;8.97;8.07;;;9.20;99.90;;;;;;4981546;28;20978;-67
2022/11/09 02:35:00;;;;;;;10.00;8.47;;;9.20;99.90;;;;;;4959929;28;20517;-67
2022/11/09 02:37:32;;;;;;;19.13;8.13;;;9.30;99.90;;;;;;4960964;28;20201;-69
2022/11/09 02:40:00;;;;;;;15.87;8.63;;;9.30;99.90;;;;;;4961181;28;20178;-69
2022/11/09 02:42:25;;;;;;;10.00;8.63;;;9.30;99.90;;;;;;4964072;28;20437;-68
2022/11/09 02:44:57;;;;;;;21.03;7.97;;;9.30;99.90;;;;;;4973924;28;20468;-68
2022/11/09 02:47:22;;;;;;;16.10;8.20;;;9.30;99.90;;;;;;4973647;28;20174;-68
2022/11/09 02:49:49;;;;;;;15.27;9.27;;;9.30;99.90;;;;;;4950569;29;20442;-67
2022/11/09 02:52:15;;;;;;;11.67;8.43;;;9.30;99.90;;;;;;4951177;28;20186;-66
2022/11/09 02:54:41;;;;;;;11.03;8.80;;;9.30;99.90;;;;;;4950823;28;20473;-67
2022/11/09 02:57:06;;;;;;;9.47;7.17;;;9.30;99.90;;;;;;4952556;28;20466;-67
2022/11/09 02:59:32;;;;;;;22.10;9.13;;;9.30;99.90;;;;;;4953355;28;20678;-65
2022/11/09 03:01:58;;;;;;;14.20;9.03;;;9.30;99.90;;;;;;4966775;28;20264;-67
2022/11/09 03:04:24;;;;;;;20.83;8.90;;;9.30;99.90;;;;;;4971387;28;20240;-66
2022/11/09 03:06:49;;;;;;;9.23;7.63;;;9.40;99.90;;;;;;4971281;28;20174;-65
2022/11/09 03:09:15;;;;;;;13.93;7.73;;;9.40;99.90;;;;;;4971570;28;20485;-66
2022/11/09 03:11:41;;;;;;;11.50;8.17;;;9.40;99.90;;;;;;4970757;28;20188;-67
2022/11/09 03:14:10;;;;;;;16.33;8.80;;;9.40;99.90;;;;;;4971674;28;20253;-66
2022/11/09 03:16:37;;;;;;;15.90;7.20;;;9.40;99.90;;;;;;4973902;28;20475;-68
2022/11/09 03:19:04;;;;;;;13.13;8.37;;;9.30;99.90;;;;;;4977601;28;20409;-68
2022/11/09 03:21:30;;;;;;;10.63;7.30;;;9.30;99.90;;;;;;4977793;28;20440;-65
2022/11/09 03:23:55;;;;;;;17.80;8.87;;;9.40;99.90;;;;;;4972248;28;20827;-65
2022/11/09 03:26:21;;;;;;;10.70;8.30;;;9.40;99.90;;;;;;4971413;28;20166;-66
2022/11/09 03:28:47;;;;;;;18.90;9.13;;;9.40;99.90;;;;;;4971186;28;20220;-63
2022/11/09 03:31:13;;;;;;;23.93;9.47;;;9.40;99.90;;;;;;4970686;28;20425;-65
2022/11/09 03:33:39;;;;;;;10.27;8.30;;;9.40;99.90;;;;;;4971356;28;20548;-63
2022/11/09 03:36:05;;;;;;;10.60;8.37;;;9.40;99.90;;;;;;4973582;28;20506;-66
2022/11/09 03:38:31;;;;;;;10.07;8.70;;;9.40;99.90;;;;;;4975307;28;20472;-66
2022/11/09 03:41:01;;;;;;;8.67;7.77;;;9.30;99.90;;;;;;4973989;28;20413;-66
2022/11/09 03:43:27;;;;;;;12.90;7.63;;;9.30;99.90;;;;;;4975241;28;20193;-65
2022/11/09 03:45:53;;;;;;;15.07;8.30;;;9.30;99.90;;;;;;4975128;28;20520;-65
2022/11/09 03:48:18;;;;;;;16.10;9.70;;;9.30;99.90;;;;;;4974985;28;20495;-67
2022/11/09 03:50:44;;;;;;;17.53;8.60;;;9.30;99.90;;;;;;4973463;28;20177;-68
2022/11/09 03:53:10;;;;;;;12.03;7.97;;;9.30;99.90;;;;;;4988327;23;20328;-66
2022/11/09 03:55:38;;;;;;;15.63;8.30;;;9.30;99.90;;;;;;4992638;28;20189;-66
2022/11/09 03:58:05;;;;;;;9.03;7.73;;;9.30;99.90;;;;;;4993901;28;20463;-66
2022/11/09 04:00:32;;;;;;;14.43;8.27;;;9.30;99.90;;;;;;4993649;28;20468;-66
2022/11/09 04:02:58;;;;;;;10.67;7.77;;;9.30;99.90;;;;;;4993893;28;20551;-66
2022/11/09 04:05:24;;;;;;;17.13;8.03;;;9.30;99.90;;;;;;4974398;28;20500;-65
2022/11/09 04:07:55;;;;;;;19.33;7.00;;;9.30;99.90;;;;;;4974857;28;20182;-66
2022/11/09 04:10:22;;;;;;;10.67;7.83;;;9.40;99.90;;;;;;4973861;28;20515;-65
2022/11/09 04:12:48;;;;;;;11.30;7.43;;;9.40;99.90;;;;;;4974009;28;20646;-65
2022/11/09 04:15:14;;;;;;;16.20;8.80;;;9.40;99.90;;;;;;4974005;28;20953;-66
2022/11/09 04:17:40;;;;;;;18.47;8.40;;;9.40;99.90;;;;;;4974173;28;20972;-66
2022/11/09 04:20:07;;;;;;;13.23;7.97;;;9.30;99.90;;;;;;4973696;28;20428;-66
2022/11/09 04:22:33;;;;;;;8.80;7.83;;;9.30;99.90;;;;;;4973765;28;20897;-66
2022/11/09 04:24:59;;;;;;;14.47;8.93;;;9.30;99.90;;;;;;4974040;28;20858;-66
2022/11/09 04:27:25;;;;;;;18.07;10.57;;;9.30;99.90;;;;;;4974117;28;20417;-66
2022/11/09 04:29:51;;;;;;;30.37;12.17;;;9.40;99.90;;;;;;4974000;28;20186;-66
2022/11/09 04:32:16;;;;;;;34.27;10.77;;;9.40;99.90;;;;;;4973286;28;20182;-66
2022/11/09 04:34:42;;;;;;;33.73;11.20;;;9.40;99.90;;;;;;4973787;28;20201;-65
2022/11/09 04:37:08;;;;;;;23.80;9.37;;;9.50;99.90;;;;;;4973825;28;20201;-65
2022/11/09 04:39:34;;;;;;;19.60;9.20;;;9.50;99.90;;;;;;4973656;28;20170;-65
2022/11/09 04:42:00;;;;;;;14.67;7.90;;;9.50;99.90;;;;;;4973511;28;20401;-66
2022/11/09 04:44:26;;;;;;;18.13;8.30;;;9.50;99.90;;;;;;4973674;28;20219;-66
2022/11/09 04:46:51;;;;;;;20.63;10.00;;;9.40;99.90;;;;;;4973459;28;20256;-66
2022/11/09 04:49:17;;;;;;;8.20;7.20;;;9.50;99.90;;;;;;4973592;28;20178;-66
2022/11/09 04:51:43;;;;;;;13.73;7.73;;;9.50;99.90;;;;;;4972679;28;20178;-66
2022/11/09 04:54:09;;;;;;;11.03;7.30;;;9.50;99.90;;;;;;4973718;28;20259;-66
2022/11/09 04:56:35;;;;;;;13.40;7.77;;;9.50;99.90;;;;;;4973467;28;20217;-66
2022/11/09 04:59:00;;;;;;;17.00;8.77;;;9.50;99.90;;;;;;4973443;28;20512;-66
2022/11/09 05:01:26;;;;;;;8.07;6.87;;;9.50;99.90;;;;;;4972868;28;20399;-66
2022/11/09 05:03:52;;;;;;;16.57;7.33;;;9.50;99.90;;;;;;4973453;28;20844;-66
2022/11/09 05:06:33;;;;;;;18.67;9.10;;;9.50;99.90;;;;;;4972904;28;20185;-66
2022/11/09 05:09:05;;;;;;;29.80;9.13;;;9.50;99.90;;;;;;4973548;28;20744;-66
2022/11/09 05:11:31;;;;;;;8.50;6.67;;;9.60;99.90;;;;;;4972906;28;20413;-65
2022/11/09 05:13:57;;;;;;;14.43;8.20;;;9.60;99.90;;;;;;4966201;28;20479;-65
2022/11/09 05:16:24;;;;;;;9.50;7.57;;;9.60;99.90;;;;;;4953874;28;20496;-65
2022/11/09 05:18:50;;;;;;;19.73;10.43;;;9.60;99.90;;;;;;4952136;28;20711;-66
2022/11/09 05:21:16;;;;;;;25.63;9.20;;;9.60;99.90;;;;;;4951914;28;20425;-66
2022/11/09 05:24:00;;;;;;;27.83;10.13;;;9.70;99.90;;;;;;4953543;28;20437;-65
2022/11/09 05:26:37;;;;;;;19.23;8.97;;;9.70;99.90;;;;;;4953739;28;20182;-65
2022/11/09 05:29:06;;;;;;;27.87;11.80;;;9.70;99.90;;;;;;4953681;29;20424;-66
2022/11/09 05:31:32;;;;;;;16.03;8.87;;;9.70;99.90;;;;;;4951992;28;20406;-66
2022/11/09 05:33:58;;;;;;;24.23;9.20;;;9.60;99.90;;;;;;4950966;29;20495;-65
2022/11/09 05:36:26;;;;;;;27.80;11.70;;;9.60;99.90;;;;;;4950715;29;20532;-65
2022/11/09 05:38:52;;;;;;;17.53;10.60;;;9.60;99.90;;;;;;4951342;28;20269;-66
2022/11/09 05:41:18;;;;;;;24.20;12.37;;;9.60;99.90;;;;;;4950222;28;20414;-66
2022/11/09 05:43:44;;;;;;;20.73;10.50;;;9.70;1.00;;;;;;4950458;28;20926;-66
2022/11/09 05:46:12;;;;;;;35.50;12.57;;;9.70;99.90;;;;;;4949503;29;20424;-66
2022/11/09 05:48:37;;;;;;;9.03;7.90;;;9.70;99.90;;;;;;4950937;28;20421;-65
2022/11/09 05:51:04;;;;;;;14.97;8.70;;;9.70;99.90;;;;;;4950258;29;20422;-65
2022/11/09 05:53:31;;;;;;;24.60;10.00;;;9.90;99.90;;;;;;4950287;29;20272;-66
2022/11/09 05:56:04;;;;;;;22.60;11.30;;;10.00;99.90;;;;;;4950477;28;20418;-66
2022/11/09 05:58:35;;;;;;;22.97;11.67;;;9.90;99.90;;;;;;4950102;28;20774;-65
2022/11/09 06:01:05;;;;;;;40.40;10.87;;;9.90;99.90;;;;;;4957200;28;20417;-65
2022/11/09 06:03:30;;;;;;;38.73;9.53;;;9.90;99.90;;;;;;4969647;28;20437;-65
2022/11/09 06:06:00;;;;;;;93.63;18.53;;;9.90;99.90;;;;;;4964845;28;20841;-65
2022/11/09 06:08:26;;;;;;;45.33;11.53;;;9.90;99.90;;;;;;4967290;28;20705;-65
2022/11/09 06:10:58;;;;;;;31.60;9.77;;;9.70;99.90;;;;;;4968668;28;20425;-67
2022/11/09 06:13:24;;;;;;;25.27;9.57;;;9.70;1.00;;;;;;4968805;28;20212;-66
2022/11/09 06:15:57;;;;;;;38.13;11.90;;;9.70;1.00;;;;;;4968855;28;20922;-65
2022/11/09 06:18:24;;;;;;;85.53;14.67;;;9.80;1.00;;;;;;4960844;28;20173;-65
2022/11/09 06:20:56;;;;;;;19.33;9.47;;;9.80;1.00;;;;;;4968353;28;20914;-66
2022/11/09 06:23:25;;;;;;;59.87;14.90;;;9.70;1.00;;;;;;4966767;28;20897;-66
2022/11/09 06:26:09;;;;;;;46.27;15.80;;;9.80;1.00;;;;;;4969543;28;20409;-67
2022/11/09 06:28:38;;;;;;;48.33;13.17;;;9.70;99.90;;;;;;4969155;28;20429;-67
2022/11/09 06:31:06;;;;;;;39.37;12.57;;;9.80;1.00;;;;;;4968874;28;21111;-65
2022/11/09 06:33:33;;;;;;;28.77;11.37;;;10.00;1.00;;;;;;4968560;28;20439;-66
2022/11/09 06:35:59;;;;;;;16.67;10.03;;;10.00;99.90;;;;;;4968831;28;20423;-65
2022/11/09 06:38:25;;;;;;;24.97;9.43;;;9.90;99.90;;;;;;4968840;28;20409;-66
2022/11/09 06:40:52;;;;;;;33.77;9.10;;;9.90;99.90;;;;;;4968704;28;20409;-65
2022/11/09 06:43:18;;;;;;;23.37;7.80;;;9.90;99.90;;;;;;4969253;28;21266;-65
2022/11/09 06:45:44;;;;;;;35.70;11.60;;;9.90;99.90;;;;;;4968741;28;20412;-65
2022/11/09 06:48:10;;;;;;;33.27;9.60;;;9.90;99.90;;;;;;4968760;28;20180;-66
2022/11/09 06:50:36;;;;;;;18.17;9.37;;;9.90;99.90;;;;;;4968345;28;20427;-67
2022/11/09 06:53:05;;;;;;;22.87;8.33;;;9.90;1.00;;;;;;4968562;28;20413;-65
2022/11/09 06:55:32;;;;;;;33.53;9.27;;;9.90;1.00;;;;;;4967971;28;20279;-66
2022/11/09 06:57:58;;;;;;;19.80;11.53;;;9.90;1.00;;;;;;4963739;28;20452;-66
2022/11/09 07:00:25;;;;;;;12.67;8.20;;;9.90;1.00;;;;;;4968275;28;20916;-65
2022/11/09 07:02:51;;;;;;;18.00;10.50;;;9.90;1.00;;;;;;4968410;28;20908;-65
2022/11/09 07:05:17;;;;;;;30.57;11.10;;;9.80;1.00;;;;;;4968473;28;20526;-65
2022/11/09 07:07:42;;;;;;;26.97;12.13;;;10.40;1.00;;;;;;4967378;28;20220;-70
2022/11/09 07:10:09;;;;;;;17.33;10.57;;;10.40;1.00;;;;;;4957696;28;20501;-69
2022/11/09 07:12:34;;;;;;;79.40;16.23;;;10.20;1.00;;;;;;4966680;28;20185;-69
2022/11/09 07:15:02;;;;;;;42.63;12.83;;;10.10;1.00;;;;;;4960845;28;20907;-68
2022/11/09 07:17:32;;;;;;;73.80;15.47;;;10.20;1.00;;;;;;4961920;28;20258;-68
2022/11/09 07:19:57;;;;;;;37.60;13.13;;;10.20;1.00;;;;;;4962367;28;20442;-69
2022/11/09 07:22:23;;;;;;;64.90;15.37;;;10.20;1.00;;;;;;4962180;28;20932;-68
2022/11/09 07:24:49;;;;;;;29.37;10.90;;;10.20;1.00;;;;;;4969493;28;20197;-68
2022/11/09 07:27:15;;;;;;;27.97;9.07;;;10.20;1.00;;;;;;4951343;29;20205;-69
2022/11/09 07:29:40;;;;;;;24.33;9.60;;;10.20;1.00;;;;;;4964013;28;20224;-69
2022/11/09 07:32:06;;;;;;;51.37;14.00;;;10.10;1.00;;;;;;4969481;28;20256;-69
2022/11/09 07:34:32;;;;;;;25.20;7.90;;;10.10;1.00;;;;;;4963532;28;20332;-68
2022/11/09 07:36:57;;;;;;;14.07;7.10;;;10.10;1.00;;;;;;4959037;28;20201;-69
2022/11/09 07:39:23;;;;;;;18.30;8.90;;;10.10;1.00;;;;;;4961479;28;20200;-69
2022/11/09 07:41:49;;;;;;;26.87;8.87;;;10.10;99.90;;;;;;4950298;28;20238;-68
2022/11/09 07:44:17;;;;;;;34.63;9.70;;;10.10;99.90;;;;;;4960822;28;20714;-68
2022/11/09 07:46:47;;;;;;;24.13;8.80;;;10.20;1.00;;;;;;4970341;28;20670;-68
2022/11/09 07:49:15;;;;;;;13.93;9.00;;;10.10;1.00;;;;;;4970587;28;20393;-68
2022/11/09 07:51:41;;;;;;;41.87;11.43;;;10.10;1.00;;;;;;4968336;28;20791;-68
2022/11/09 07:54:07;;;;;;;31.67;9.37;;;10.10;1.00;;;;;;4970221;28;20949;-68
2022/11/09 07:56:33;;;;;;;22.97;8.10;;;10.10;1.00;;;;;;4970706;28;20531;-69
2022/11/09 07:58:59;;;;;;;39.70;10.63;;;10.10;1.00;;;;;;4970427;28;20526;-68
2022/11/09 08:01:25;;;;;;;20.80;8.50;;;10.10;1.00;;;;;;4959186;28;20536;-68
2022/11/09 08:03:52;;;;;;;29.83;10.30;;;10.10;1.00;;;;;;4951083;29;20190;-68
2022/11/09 08:06:18;;;;;;;13.60;7.67;;;10.20;1.00;;;;;;4950658;28;20185;-69
2022/11/09 08:08:44;;;;;;;23.00;8.73;;;10.20;1.00;;;;;;4951367;28;20445;-69
2022/11/09 08:11:10;;;;;;;17.60;7.87;;;10.20;1.00;;;;;;4950371;28;20174;-69
2022/11/09 08:13:35;;;;;;;22.60;8.93;;;10.30;1.00;;;;;;4962795;28;20568;-68
2022/11/09 08:16:02;;;;;;;21.50;8.53;;;10.20;1.00;;;;;;4962285;28;20244;-68
2022/11/09 08:18:28;;;;;;;12.60;7.77;;;10.30;1.00;;;;;;4970070;28;20166;-69
2022/11/09 08:20:53;;;;;;;12.40;7.30;;;10.30;1.00;;;;;;4969190;28;20444;-68
2022/11/09 08:23:20;;;;;;;9.23;6.50;;;10.30;1.00;;;;;;4970381;28;20260;-68
2022/11/09 08:25:47;;;;;;;15.77;9.40;;;10.30;1.00;;;;;;4966938;28;20185;-68
2022/11/09 08:28:15;;;;;;;18.40;7.47;;;10.40;1.00;;;;;;4972610;28;20444;-69
2022/11/09 08:30:42;;;;;;;15.77;7.43;;;10.30;1.00;;;;;;4970229;28;20806;-68
2022/11/09 08:33:08;;;;;;;27.90;8.57;;;10.30;1.00;;;;;;4966210;28;20411;-69
2022/11/09 08:35:34;;;;;;;20.60;8.97;;;10.40;1.00;;;;;;4954038;29;20446;-68
2022/11/09 08:38:02;;;;;;;29.40;10.30;;;10.40;1.00;;;;;;4963316;28;20500;-68
2022/11/09 08:40:29;;;;;;;14.97;7.73;;;10.40;1.00;;;;;;4964109;28;20325;-68
2022/11/09 08:42:54;;;;;;;22.07;9.83;;;10.40;1.00;;;;;;4965781;28;20413;-68
2022/11/09 08:45:20;;;;;;;11.23;7.17;;;10.40;1.00;;;;;;4971274;28;20539;-68
2022/11/09 08:47:46;;;;;;;10.63;7.47;;;10.50;1.00;;;;;;4959352;28;20634;-68
2022/11/09 08:50:13;;;;;;;20.77;9.60;;;10.50;1.00;;;;;;4973147;28;20423;-68
2022/11/09 08:52:40;;;;;;;22.10;8.73;;;10.50;1.00;;;;;;4953539;28;20232;-68
2022/11/09 08:55:06;;;;;;;11.10;7.40;;;10.50;1.00;;;;;;4970222;28;20563;-69
2022/11/09 08:57:32;;;;;;;13.33;6.90;;;10.60;1.00;;;;;;4957815;28;21070;-68
2022/11/09 08:59:58;;;;;;;18.33;7.60;;;10.50;1.00;;;;;;4962657;28;20492;-69
2022/11/09 09:02:23;;;;;;;14.80;7.30;;;10.60;1.00;;;;;;4967818;28;20248;-70
2022/11/09 09:04:49;;;;;;;15.40;7.60;;;10.60;1.00;;;;;;4953201;28;20223;-69
2022/11/09 09:07:15;;;;;;;22.03;7.73;;;10.70;1.00;;;;;;4967426;28;20742;-69
2022/11/09 09:09:40;;;;;;;17.53;7.10;;;10.70;1.00;;;;;;4972656;28;20184;-69
2022/11/09 09:12:08;;;;;;;13.07;6.77;;;10.80;1.00;;;;;;4972050;28;20177;-69
2022/11/09 09:14:34;;;;;;;23.03;7.63;;;10.80;1.00;;;;;;4972834;28;20259;-69
2022/11/09 09:17:00;;;;;;;8.20;6.20;;;10.90;1.00;;;;;;4972488;28;20485;-69
2022/11/09 09:19:26;;;;;;;7.77;6.10;;;10.90;1.00;;;;;;4972393;28;20445;-69
2022/11/09 09:21:52;;;;;;;14.93;5.33;;;10.90;1.00;;;;;;4971368;28;20409;-69
2022/11/09 09:24:18;;;;;;;7.00;5.57;;;11.00;1.00;;;;;;4972228;28;20434;-69
2022/11/09 09:26:45;;;;;;;8.47;5.80;;;11.10;1.00;;;;;;4972265;28;20421;-69
2022/11/09 09:29:12;;;;;;;18.67;6.70;;;11.10;1.00;;;;;;4972784;28;20181;-68
2022/11/09 09:31:39;;;;;;;71.33;11.00;;;11.20;1.00;;;;;;4970754;28;21081;-68
2022/11/09 09:34:05;;;;;;;22.37;8.53;;;11.20;1.00;;;;;;4952741;28;20449;-69
2022/11/09 09:36:30;;;;;;;45.93;9.50;;;11.20;1.00;;;;;;4953121;28;20454;-68
2022/11/09 09:38:57;;;;;;;25.80;6.73;;;11.30;1.00;;;;;;4970406;28;20198;-68
2022/11/09 09:41:53;;;;;;;25.80;6.63;;;11.30;1.00;;;;;;4970846;28;20182;-69
2022/11/09 09:44:52;;;;;;;18.10;7.20;;;11.30;1.00;;;;;;4969937;28;20449;-71
2022/11/09 09:47:39;;;;;;;9.43;6.63;;;11.40;1.00;;;;;;4963747;28;20789;-67
2022/11/09 09:50:17;;;;;;;7.67;6.67;;;11.40;1.00;;;;;;4964509;28;20806;-67
2022/11/09 09:52:52;;;;;;;7.73;5.30;;;11.50;1.00;;;;;;4969181;28;20804;-68
2022/11/09 09:55:17;;;;;;;9.93;6.07;;;11.50;1.00;;;;;;4969450;28;20834;-67
2022/11/09 09:57:49;;;;;;;15.53;6.73;;;11.50;1.00;;;;;;4967866;28;20464;-70
2022/11/09 10:00:23;;;;;;;35.30;9.30;;;11.60;1.00;;;;;;4966210;28;20788;-70
2022/11/09 10:02:50;;;;;;;19.37;7.17;;;11.70;1.00;;;;;;4967039;28;20631;-70
2022/11/09 10:05:17;;;;;;;13.77;6.30;;;11.70;1.00;;;;;;4971678;28;20445;-69
2022/11/09 10:08:31;;;;;;;11.07;5.70;;;11.80;1.00;;;;;;4972113;28;20455;-68
2022/11/09 10:11:06;;;;;;;15.60;6.60;;;12.00;1.00;;;;;;4944026;29;20419;-68
2022/11/09 10:13:31;;;;;;;14.33;6.80;;;12.20;1.00;;;;;;4962678;28;20456;-69
2022/11/09 10:16:24;;;;;;;8.10;5.63;;;12.30;1.00;;;;;;4972197;28;20412;-68
2022/11/09 10:19:27;;;;;;;14.17;6.27;;;12.30;1.00;;;;;;4969444;28;20197;-68
2022/11/09 10:22:48;;;;;;;7.90;5.60;;;12.40;1.00;;;;;;4969009;28;20425;-69
2022/11/09 10:25:26;;;;;;;10.07;6.13;;;12.50;1.00;;;;;;4932428;29;20453;-68
2022/11/09 10:27:56;;;;;;;63.63;10.40;;;12.60;1.00;;;;;;4970222;28;20436;-68
2022/11/09 10:30:24;;;;;;;11.13;5.50;;;12.60;1.00;;;;;;4970833;28;20432;-68
2022/11/09 10:32:56;;;;;;;116.77;14.70;;;12.60;1.00;;;;;;4968001;28;20437;-69
2022/11/09 10:35:36;;;;;;;80.27;11.60;;;12.60;1.00;;;;;;4961570;28;20452;-68
2022/11/09 10:38:02;;;;;;;59.13;9.20;;;12.90;1.00;;;;;;4969007;28;20465;-70
2022/11/09 10:40:37;;;;;;;175.83;23.33;;;13.20;1.00;;;;;;4969029;28;20436;-68
2022/11/09 10:43:09;;;;;;;92.33;13.47;;;13.40;1.00;;;;;;4968412;28;20268;-68
2022/11/09 10:45:38;;;;;;;22.70;5.77;;;13.50;1.00;;;;;;4970878;28;20397;-70
2022/11/09 10:48:05;;;;;;;16.10;4.10;;;13.70;1.00;;;;;;4969917;28;20433;-70
2022/11/09 10:50:46;;;;;;;42.53;7.77;;;14.10;1.00;;;;;;4963524;28;20921;-71
2022/11/09 10:53:23;;;;;;;21.93;5.03;;;14.60;1.00;;;;;;4964758;28;20459;-69
2022/11/09 10:55:57;;;;;;;54.60;7.47;;;15.00;65.10;;;;;;4962379;28;20444;-69
2022/11/09 10:58:25;;;;;;;91.67;13.30;;;15.20;1.00;;;;;;4967422;28;20456;-68
2022/11/09 11:01:04;;;;;;;75.90;10.27;;;15.20;99.90;;;;;;4966641;28;20508;-68
2022/11/09 11:03:34;;;;;;;117.70;16.07;;;15.20;99.90;;;;;;4967315;28;20980;-69
2022/11/09 11:06:10;;;;;;;46.40;7.40;;;15.10;91.10;;;;;;4961454;28;20822;-69
2022/11/09 11:08:39;;;;;;;16.57;4.33;;;15.10;1.00;;;;;;4965290;28;20484;-69
2022/11/09 11:11:12;;;;;;;20.60;3.77;;;15.00;1.00;;;;;;4961287;28;20815;-68
2022/11/09 11:13:39;;;;;;;7.80;2.90;;;14.80;1.00;;;;;;4962587;28;20544;-69
2022/11/09 11:16:23;;;;;;;10.30;2.90;;;14.80;99.90;;;;;;4962870;28;20405;-70
2022/11/09 11:18:49;;;;;;;19.73;4.37;;;14.70;1.00;;;;;;4965636;28;20945;-69
2022/11/09 11:21:17;;;;;;;28.47;3.80;;;14.70;99.90;;;;;;4966653;28;20456;-69
2022/11/09 11:23:43;;;;;;;11.50;2.90;;;14.60;99.90;;;;;;4967666;28;20204;-69
2022/11/09 11:26:31;;;;;;;8.27;3.10;;;14.50;99.90;;;;;;4967878;28;20511;-70
2022/11/09 11:29:03;;;;;;;11.77;4.30;;;14.60;55.70;;;;;;4964308;28;20228;-69
2022/11/09 11:31:29;;;;;;;8.47;2.70;;;14.60;99.90;;;;;;4967404;28;20437;-70
2022/11/09 11:33:55;;;;;;;9.97;5.27;;;14.50;99.90;;;;;;4967922;28;20456;-70
2022/11/09 11:36:44;;;;;;;10.70;3.10;;;14.50;88.00;;;;;;4960753;28;20254;-70
2022/11/09 11:39:28;;;;;;;8.57;2.20;;;14.50;99.90;;;;;;4967067;28;20797;-69
2022/11/09 11:42:15;;;;;;;23.40;4.50;;;14.40;99.90;;;;;;4967693;28;20424;-70
2022/11/09 11:44:57;;;;;;;24.33;4.80;;;14.40;99.90;;;;;;4957890;28;20437;-70
2022/11/09 11:47:32;;;;;;;26.20;3.67;;;14.40;1.00;;;;;;4961467;28;20418;-70
2022/11/09 11:50:14;;;;;;;18.60;3.73;;;14.30;1.00;;;;;;4961864;28;20500;-71
2022/11/09 11:53:24;;;;;;;9.30;2.40;;;14.30;1.00;;;;;;4968640;28;20413;-70
2022/11/09 11:56:37;;;;;;;25.83;5.20;;;14.30;99.90;;;;;;4958718;28;20506;-70
2022/11/09 11:59:14;;;;;;;18.30;2.80;;;14.30;99.90;;;;;;4962978;28;20445;-69
2022/11/09 12:01:46;;;;;;;59.93;6.90;;;14.30;99.90;;;;;;4968964;28;20917;-69
2022/11/09 12:04:38;;;;;;;26.63;4.90;;;14.30;99.90;;;;;;4972826;28;20436;-69
2022/11/09 12:07:32;;;;;;;47.07;7.70;;;14.40;1.00;;;;;;4969188;28;21070;-69
2022/11/09 12:10:19;;;;;;;207.20;20.30;;;14.40;1.00;;;;;;4974191;28;20412;-70
2022/11/09 12:13:12;;;;;;;60.73;7.87;;;14.40;7.10;;;;;;4963717;28;20491;-71
2022/11/09 12:15:53;;;;;;;62.93;8.27;;;14.40;1.00;;;;;;4962453;28;20942;-69
2022/11/09 12:18:46;;;;;;;23.87;4.50;;;14.50;1.00;;;;;;4953476;29;20545;-68
2022/11/09 12:21:25;;;;;;;42.63;6.40;;;14.50;1.00;;;;;;4953051;28;20402;-69
2022/11/09 12:24:09;;;;;;;51.13;7.10;;;14.50;1.00;;;;;;4961686;28;20820;-69
2022/11/09 12:27:16;;;;;;;6.03;3.03;;;14.60;1.00;;;;;;4961998;28;20769;-70
2022/11/09 12:30:13;;;;;;;8.23;3.07;;;14.60;1.00;;;;;;4964343;28;20437;-69
2022/11/09 12:32:50;;;;;;;18.93;3.37;;;14.70;1.00;;;;;;4965827;28;20930;-69
2022/11/09 12:35:31;;;;;;;34.00;5.60;;;14.70;1.00;;;;;;4971349;28;20444;-69
2022/11/09 12:38:08;;;;;;;111.47;12.40;;;14.70;1.00;;;;;;4965491;28;20787;-69
2022/11/09 12:40:38;;;;;;;45.10;5.93;;;14.80;1.00;;;;;;4972869;28;20409;-69
2022/11/09 12:43:30;;;;;;;39.33;6.70;;;14.90;1.00;;;;;;4972952;28;20401;-68
2022/11/09 12:45:58;;;;;;;6.20;2.50;;;15.00;1.00;;;;;;4967624;28;20594;-68
2022/11/09 12:48:28;;;;;;;18.83;3.73;;;15.20;99.20;;;;;;4973326;28;20417;-68
2022/11/09 12:50:55;;;;;;;175.00;19.20;;;15.30;1.00;;;;;;4972898;28;20434;-68
2022/11/09 12:53:43;;;;;;;40.23;7.90;;;15.40;99.90;;;;;;4972163;28;20627;-68
2022/11/09 12:56:22;;;;;;;41.17;8.17;;;15.40;99.90;;;;;;4953623;28;20424;-69
2022/11/09 12:58:47;;;;;;;31.03;5.20;;;15.20;1.00;;;;;;4957203;28;20465;-68